Aviation Digital Data Service (ADDS)

Output produced by METARs form (0110 UTC 20 January 2022)
found at http://www.aviationweather.gov/metar/data/
 
LFRN 200100Z AUTO 01007KT CAVOK 06/05 Q1031 TEMPO 3000 BR
TAF AMD LFRN 192303Z 1923/2018 36010KT 9999 BKN020 
     PROB40 
     TEMPO 1923/2009 3000 BR BKN003